sensor_id;sensor_type;location;lat;lon;timestamp;pressure;altitude;pressure_sealevel;temperature;humidity
72925;BME280;61070;50.794;7.054;2024-01-07T00:00:09;100893.41;;;2.42;85.50
72925;BME280;61070;50.794;7.054;2024-01-07T00:01:09;100899.44;;;2.43;85.73
72925;BME280;61070;50.794;7.054;2024-01-07T00:02:10;100897.66;;;2.49;85.50
72925;BME280;61070;50.794;7.054;2024-01-07T00:03:10;100892.47;;;2.51;85.47
72925;BME280;61070;50.794;7.054;2024-01-07T00:04:10;100902.13;;;2.37;85.37
72925;BME280;61070;50.794;7.054;2024-01-07T00:05:11;100900.31;;;2.43;85.03
72925;BME280;61070;50.794;7.054;2024-01-07T00:06:11;100892.41;;;2.55;85.15
72925;BME280;61070;50.794;7.054;2024-01-07T00:07:11;100901.94;;;2.52;84.69
72925;BME280;61070;50.794;7.054;2024-01-07T00:08:12;100902.88;;;2.46;84.76
72925;BME280;61070;50.794;7.054;2024-01-07T00:09:12;100898.53;;;2.48;84.90
72925;BME280;61070;50.794;7.054;2024-01-07T00:10:15;100897.47;;;2.66;84.86
72925;BME280;61070;50.794;7.054;2024-01-07T00:11:15;100900.19;;;2.55;84.50
72925;BME280;61070;50.794;7.054;2024-01-07T00:12:16;100903.69;;;2.51;84.97
72925;BME280;61070;50.794;7.054;2024-01-07T00:13:17;100897.78;;;2.40;84.92
72925;BME280;61070;50.794;7.054;2024-01-07T00:14:17;100909.03;;;2.38;85.41
72925;BME280;61070;50.794;7.054;2024-01-07T00:15:17;100909.72;;;2.52;84.83
72925;BME280;61070;50.794;7.054;2024-01-07T00:16:18;100913.22;;;2.49;84.94
72925;BME280;61070;50.794;7.054;2024-01-07T00:17:18;100915.88;;;2.42;84.90
72925;BME280;61070;50.794;7.054;2024-01-07T00:18:18;100914.19;;;2.41;85.41
72925;BME280;61070;50.794;7.054;2024-01-07T00:19:18;100912.34;;;2.50;85.35
72925;BME280;61070;50.794;7.054;2024-01-07T00:20:19;100912.31;;;2.55;84.74
72925;BME280;61070;50.794;7.054;2024-01-07T00:21:20;100904.44;;;2.61;84.81
72925;BME280;61070;50.794;7.054;2024-01-07T00:22:20;100908.75;;;2.64;84.49
72925;BME280;61070;50.794;7.054;2024-01-07T00:23:20;100913.19;;;2.51;84.48
72925;BME280;61070;50.794;7.054;2024-01-07T00:24:20;100912.31;;;2.52;85.24
72925;BME280;61070;50.794;7.054;2024-01-07T00:25:21;100912.41;;;2.43;85.06
72925;BME280;61070;50.794;7.054;2024-01-07T00:26:21;100909.03;;;2.38;85.57
72925;BME280;61070;50.794;7.054;2024-01-07T00:27:22;100910.59;;;2.51;85.50
72925;BME280;61070;50.794;7.054;2024-01-07T00:28:22;100916.69;;;2.47;85.32
72925;BME280;61070;50.794;7.054;2024-01-07T00:29:22;100920.13;;;2.50;85.68
72925;BME280;61070;50.794;7.054;2024-01-07T00:30:22;100915.81;;;2.51;84.93
72925;BME280;61070;50.794;7.054;2024-01-07T00:31:23;100918.38;;;2.54;84.74
72925;BME280;61070;50.794;7.054;2024-01-07T00:32:23;100920.94;;;2.55;84.37
72925;BME280;61070;50.794;7.054;2024-01-07T00:33:23;100922.66;;;2.53;84.81
72925;BME280;61070;50.794;7.054;2024-01-07T00:34:24;100918.28;;;2.60;84.80
72925;BME280;61070;50.794;7.054;2024-01-07T00:35:24;100919.16;;;2.61;84.60
72925;BME280;61070;50.794;7.054;2024-01-07T00:36:24;100923.66;;;2.45;84.77
72925;BME280;61070;50.794;7.054;2024-01-07T00:37:24;100918.50;;;2.42;85.00
72925;BME280;61070;50.794;7.054;2024-01-07T00:38:25;100924.47;;;2.47;85.30
72925;BME280;61070;50.794;7.054;2024-01-07T00:39:25;100928.75;;;2.54;84.68
72925;BME280;61070;50.794;7.054;2024-01-07T00:40:25;100933.13;;;2.49;84.15
72925;BME280;61070;50.794;7.054;2024-01-07T00:41:26;100923.41;;;2.66;84.70
72925;BME280;61070;50.794;7.054;2024-01-07T00:42:27;100922.59;;;2.61;84.22
72925;BME280;61070;50.794;7.054;2024-01-07T00:43:27;100918.22;;;2.66;84.41
72925;BME280;61070;50.794;7.054;2024-01-07T00:44:27;100920.88;;;2.58;83.97
72925;BME280;61070;50.794;7.054;2024-01-07T00:45:27;100920.94;;;2.55;83.90
72925;BME280;61070;50.794;7.054;2024-01-07T00:46:28;100919.13;;;2.64;83.88
72925;BME280;61070;50.794;7.054;2024-01-07T00:47:28;100911.38;;;2.57;83.97
72925;BME280;61070;50.794;7.054;2024-01-07T00:48:28;100917.44;;;2.59;84.19
72925;BME280;61070;50.794;7.054;2024-01-07T00:49:28;100920.78;;;2.68;84.12
72925;BME280;61070;50.794;7.054;2024-01-07T00:50:29;100911.38;;;2.61;83.87
72925;BME280;61070;50.794;7.054;2024-01-07T00:51:29;100916.59;;;2.56;84.20
72925;BME280;61070;50.794;7.054;2024-01-07T00:52:29;100912.88;;;2.80;83.70
72925;BME280;61070;50.794;7.054;2024-01-07T00:53:29;100919.78;;;2.78;82.72
72925;BME280;61070;50.794;7.054;2024-01-07T00:54:30;100919.19;;;2.59;83.61
72925;BME280;61070;50.794;7.054;2024-01-07T00:55:30;100909.66;;;2.58;83.46
72925;BME280;61070;50.794;7.054;2024-01-07T00:56:30;100916.69;;;2.48;84.03
72925;BME280;61070;50.794;7.054;2024-01-07T00:57:30;100914.22;;;2.39;84.39
72925;BME280;61070;50.794;7.054;2024-01-07T00:58:31;100922.78;;;2.43;84.54
72925;BME280;61070;50.794;7.054;2024-01-07T00:59:31;100924.47;;;2.48;84.87
72925;BME280;61070;50.794;7.054;2024-01-07T01:00:31;100915.78;;;2.52;84.76
72925;BME280;61070;50.794;7.054;2024-01-07T01:01:32;100924.44;;;2.51;84.43
72925;BME280;61070;50.794;7.054;2024-01-07T01:02:32;100918.38;;;2.52;84.64
72925;BME280;61070;50.794;7.054;2024-01-07T01:03:32;100925.94;;;2.71;84.23
72925;BME280;61070;50.794;7.054;2024-01-07T01:04:32;100927.81;;;2.59;84.21
72925;BME280;61070;50.794;7.054;2024-01-07T01:05:33;100922.78;;;2.46;84.44
72925;BME280;61070;50.794;7.054;2024-01-07T01:06:33;100927.88;;;2.52;84.09
72925;BME280;61070;50.794;7.054;2024-01-07T01:07:34;100926.94;;;2.57;84.13
72925;BME280;61070;50.794;7.054;2024-01-07T01:08:34;100927.88;;;2.55;84.29
72925;BME280;61070;50.794;7.054;2024-01-07T01:09:34;100925.13;;;2.69;84.02
72925;BME280;61070;50.794;7.054;2024-01-07T01:10:35;100932.16;;;2.59;83.93
72925;BME280;61070;50.794;7.054;2024-01-07T01:11:35;100933.13;;;2.47;83.87
72925;BME280;61070;50.794;7.054;2024-01-07T01:12:35;100935.66;;;2.55;84.29
72925;BME280;61070;50.794;7.054;2024-01-07T01:13:35;100930.50;;;2.50;84.46
72925;BME280;61070;50.794;7.054;2024-01-07T01:14:36;100933.03;;;2.56;84.32
72925;BME280;61070;50.794;7.054;2024-01-07T01:15:36;100942.50;;;2.61;84.36
72925;BME280;61070;50.794;7.054;2024-01-07T01:16:36;100939.09;;;2.55;84.39
72925;BME280;61070;50.794;7.054;2024-01-07T01:17:36;100933.94;;;2.52;84.39
72925;BME280;61070;50.794;7.054;2024-01-07T01:18:37;100932.94;;;2.64;83.63
72925;BME280;61070;50.794;7.054;2024-01-07T01:19:37;100948.41;;;2.72;83.43
72925;BME280;61070;50.794;7.054;2024-01-07T01:20:37;100952.78;;;2.67;83.01
72925;BME280;61070;50.794;7.054;2024-01-07T01:21:37;100939.88;;;2.62;83.33
72925;BME280;61070;50.794;7.054;2024-01-07T01:22:38;100946.91;;;2.52;83.88
72925;BME280;61070;50.794;7.054;2024-01-07T01:23:38;100941.44;;;2.77;84.01
72925;BME280;61070;50.794;7.054;2024-01-07T01:24:38;100950.88;;;2.82;83.32
72925;BME280;61070;50.794;7.054;2024-01-07T01:25:39;100946.78;;;2.65;83.44
72925;BME280;61070;50.794;7.054;2024-01-07T01:26:39;100943.50;;;2.49;83.79
72925;BME280;61070;50.794;7.054;2024-01-07T01:27:40;100947.78;;;2.51;84.26
72925;BME280;61070;50.794;7.054;2024-01-07T01:28:40;100948.50;;;2.64;84.64
72925;BME280;61070;50.794;7.054;2024-01-07T01:29:41;100952.78;;;2.67;84.09
72925;BME280;61070;50.794;7.054;2024-01-07T01:30:41;100948.50;;;2.64;83.79
72925;BME280;61070;50.794;7.054;2024-01-07T01:31:41;100950.34;;;2.53;83.88
72925;BME280;61070;50.794;7.054;2024-01-07T01:32:41;100952.00;;;2.62;84.26
72925;BME280;61070;50.794;7.054;2024-01-07T01:33:42;100962.44;;;2.55;84.35
72925;BME280;61070;50.794;7.054;2024-01-07T01:34:42;100948.59;;;2.53;84.30
72925;BME280;61070;50.794;7.054;2024-01-07T01:35:42;100948.63;;;2.55;84.46
72925;BME280;61070;50.794;7.054;2024-01-07T01:36:43;100960.63;;;2.64;84.78
72925;BME280;61070;50.794;7.054;2024-01-07T01:37:44;100962.38;;;2.60;84.36
72925;BME280;61070;50.794;7.054;2024-01-07T01:38:44;100957.06;;;2.71;84.13
72925;BME280;61070;50.794;7.054;2024-01-07T01:39:44;100958.81;;;2.70;83.90
72925;BME280;61070;50.794;7.054;2024-01-07T01:40:51;100963.09;;;2.73;84.22
72925;BME280;61070;50.794;7.054;2024-01-07T01:41:51;100963.97;;;2.72;83.95
72925;BME280;61070;50.794;7.054;2024-01-07T01:42:51;100956.28;;;2.64;84.33
72925;BME280;61070;50.794;7.054;2024-01-07T01:43:57;100960.56;;;2.68;84.22
72925;BME280;61070;50.794;7.054;2024-01-07T01:44:57;100958.84;;;2.67;84.25
72925;BME280;61070;50.794;7.054;2024-01-07T01:46:01;100960.59;;;2.65;84.76
72925;BME280;61070;50.794;7.054;2024-01-07T01:47:02;100966.03;;;2.44;84.98
72925;BME280;61070;50.794;7.054;2024-01-07T01:48:03;100967.66;;;2.51;85.24
72925;BME280;61070;50.794;7.054;2024-01-07T01:49:04;100961.56;;;2.56;85.08
72925;BME280;61070;50.794;7.054;2024-01-07T01:50:05;100970.25;;;2.54;84.68
72925;BME280;61070;50.794;7.054;2024-01-07T01:51:05;100968.66;;;2.39;85.36
72925;BME280;61070;50.794;7.054;2024-01-07T01:52:05;100972.00;;;2.50;85.15
72925;BME280;61070;50.794;7.054;2024-01-07T01:53:06;100965.13;;;2.46;85.30
72925;BME280;61070;50.794;7.054;2024-01-07T01:54:07;100969.38;;;2.52;85.17
72925;BME280;61070;50.794;7.054;2024-01-07T01:55:07;100972.72;;;2.63;85.10
72925;BME280;61070;50.794;7.054;2024-01-07T01:56:07;100968.44;;;2.61;84.79
72925;BME280;61070;50.794;7.054;2024-01-07T01:57:09;100961.38;;;2.72;84.63
72925;BME280;61070;50.794;7.054;2024-01-07T01:58:13;100959.75;;;2.63;84.21
72925;BME280;61070;50.794;7.054;2024-01-07T01:59:15;100973.66;;;2.59;84.55
72925;BME280;61070;50.794;7.054;2024-01-07T02:00:16;100971.09;;;2.54;84.27
72925;BME280;61070;50.794;7.054;2024-01-07T02:01:17;100975.13;;;2.80;84.26
72925;BME280;61070;50.794;7.054;2024-01-07T02:02:17;100964.84;;;2.71;83.96
72925;BME280;61070;50.794;7.054;2024-01-07T02:03:18;100970.88;;;2.74;84.07
72925;BME280;61070;50.794;7.054;2024-01-07T02:04:18;100976.03;;;2.76;83.54
72925;BME280;61070;50.794;7.054;2024-01-07T02:05:19;100974.44;;;2.64;83.47
72925;BME280;61070;50.794;7.054;2024-01-07T02:06:20;100974.44;;;2.63;83.82
72925;BME280;61070;50.794;7.054;2024-01-07T02:07:21;100977.13;;;2.53;84.03
72925;BME280;61070;50.794;7.054;2024-01-07T02:08:21;100976.34;;;2.47;84.46
72925;BME280;61070;50.794;7.054;2024-01-07T02:09:21;100974.59;;;2.50;84.41
72925;BME280;61070;50.794;7.054;2024-01-07T02:10:22;100981.50;;;2.48;84.54
72925;BME280;61070;50.794;7.054;2024-01-07T02:11:22;100983.22;;;2.51;84.75
72925;BME280;61070;50.794;7.054;2024-01-07T02:12:23;100979.66;;;2.61;84.05
72925;BME280;61070;50.794;7.054;2024-01-07T02:13:23;100984.81;;;2.63;83.97
72925;BME280;61070;50.794;7.054;2024-01-07T02:14:23;100985.56;;;2.75;83.52
72925;BME280;61070;50.794;7.054;2024-01-07T02:15:23;100988.22;;;2.71;83.89
72925;BME280;61070;50.794;7.054;2024-01-07T02:16:24;100988.34;;;2.57;83.97
72925;BME280;61070;50.794;7.054;2024-01-07T02:17:24;100986.63;;;2.56;83.96
72925;BME280;61070;50.794;7.054;2024-01-07T02:18:24;100996.09;;;2.60;84.26
72925;BME280;61070;50.794;7.054;2024-01-07T02:19:24;100990.00;;;2.63;84.25
72925;BME280;61070;50.794;7.054;2024-01-07T02:20:25;100990.00;;;2.63;83.84
72925;BME280;61070;50.794;7.054;2024-01-07T02:21:25;100990.84;;;2.69;83.67
72925;BME280;61070;50.794;7.054;2024-01-07T02:22:25;100994.16;;;2.80;83.29
72925;BME280;61070;50.794;7.054;2024-01-07T02:23:25;100995.19;;;2.66;83.04
72925;BME280;61070;50.794;7.054;2024-01-07T02:24:26;100994.38;;;2.61;83.43
72925;BME280;61070;50.794;7.054;2024-01-07T02:25:26;100990.91;;;2.62;84.01
72925;BME280;61070;50.794;7.054;2024-01-07T02:26:26;100988.31;;;2.62;84.16
72925;BME280;61070;50.794;7.054;2024-01-07T02:27:27;100992.59;;;2.63;83.94
72925;BME280;61070;50.794;7.054;2024-01-07T02:28:29;100992.66;;;2.59;84.26
72925;BME280;61070;50.794;7.054;2024-01-07T02:29:29;100993.53;;;2.57;84.02
72925;BME280;61070;50.794;7.054;2024-01-07T02:30:29;100993.47;;;2.65;84.04
72925;BME280;61070;50.794;7.054;2024-01-07T02:31:30;100993.47;;;2.63;83.77
72925;BME280;61070;50.794;7.054;2024-01-07T02:32:30;100996.09;;;2.60;83.79
72925;BME280;61070;50.794;7.054;2024-01-07T02:33:34;100993.50;;;2.62;83.55
72925;BME280;61070;50.794;7.054;2024-01-07T02:34:34;100990.88;;;2.63;83.96
72925;BME280;61070;50.794;7.054;2024-01-07T02:35:34;100987.34;;;2.70;83.46
72925;BME280;61070;50.794;7.054;2024-01-07T02:36:35;100994.31;;;2.65;83.70
72925;BME280;61070;50.794;7.054;2024-01-07T02:37:35;100990.00;;;2.63;83.38
72925;BME280;61070;50.794;7.054;2024-01-07T02:38:36;100989.94;;;2.70;83.78
72925;BME280;61070;50.794;7.054;2024-01-07T02:39:36;100994.34;;;2.64;83.60
72925;BME280;61070;50.794;7.054;2024-01-07T02:40:36;100992.44;;;2.79;82.88
72925;BME280;61070;50.794;7.054;2024-01-07T02:41:36;100991.72;;;2.65;83.15
72925;BME280;61070;50.794;7.054;2024-01-07T02:42:37;100997.75;;;2.67;83.13
72925;BME280;61070;50.794;7.054;2024-01-07T02:43:37;100994.34;;;2.62;83.56
72925;BME280;61070;50.794;7.054;2024-01-07T02:44:38;100988.34;;;2.57;83.37
72925;BME280;61070;50.794;7.054;2024-01-07T02:45:38;100993.50;;;2.62;83.68
72925;BME280;61070;50.794;7.054;2024-01-07T02:46:39;100988.13;;;2.80;83.14
72925;BME280;61070;50.794;7.054;2024-01-07T02:47:39;100988.91;;;2.85;82.12
72925;BME280;61070;50.794;7.054;2024-01-07T02:48:39;100995.78;;;2.88;82.37
72925;BME280;61070;50.794;7.054;2024-01-07T02:49:39;100997.72;;;2.70;82.98
72925;BME280;61070;50.794;7.054;2024-01-07T02:50:40;100989.88;;;2.76;82.68
72925;BME280;61070;50.794;7.054;2024-01-07T02:51:41;100987.22;;;2.84;82.05
72925;BME280;61070;50.794;7.054;2024-01-07T02:52:41;100995.88;;;2.78;82.02
72925;BME280;61070;50.794;7.054;2024-01-07T02:53:42;100997.75;;;2.69;82.38
72925;BME280;61070;50.794;7.054;2024-01-07T02:54:42;100994.34;;;2.64;82.67
72925;BME280;61070;50.794;7.054;2024-01-07T02:55:42;100994.44;;;2.54;82.77
72925;BME280;61070;50.794;7.054;2024-01-07T02:56:43;100991.72;;;2.65;82.80
72925;BME280;61070;50.794;7.054;2024-01-07T02:57:43;100993.41;;;2.71;82.50
72925;BME280;61070;50.794;7.054;2024-01-07T02:58:43;100997.59;;;2.84;82.48
72925;BME280;61070;50.794;7.054;2024-01-07T02:59:43;100996.00;;;2.68;81.97
72925;BME280;61070;50.794;7.054;2024-01-07T03:00:44;100996.81;;;2.76;82.15
72925;BME280;61070;50.794;7.054;2024-01-07T03:01:44;100993.66;;;2.45;82.64
72925;BME280;61070;50.794;7.054;2024-01-07T03:02:45;100995.25;;;2.59;82.57
72925;BME280;61070;50.794;7.054;2024-01-07T03:03:45;100998.69;;;2.60;82.78
72925;BME280;61070;50.794;7.054;2024-01-07T03:04:45;101004.75;;;2.57;82.60
72925;BME280;61070;50.794;7.054;2024-01-07T03:05:45;101003.06;;;2.55;82.64
72925;BME280;61070;50.794;7.054;2024-01-07T03:06:46;101002.31;;;2.45;82.73
72925;BME280;61070;50.794;7.054;2024-01-07T03:07:46;100998.81;;;2.46;82.72
72925;BME280;61070;50.794;7.054;2024-01-07T03:08:47;101003.97;;;2.54;83.29
72925;BME280;61070;50.794;7.054;2024-01-07T03:09:49;101006.50;;;2.57;83.05
72925;BME280;61070;50.794;7.054;2024-01-07T03:10:49;101013.47;;;2.52;82.75
72925;BME280;61070;50.794;7.054;2024-01-07T03:11:49;101004.72;;;2.64;83.40
72925;BME280;61070;50.794;7.054;2024-01-07T03:12:50;101009.97;;;2.59;82.96
72925;BME280;61070;50.794;7.054;2024-01-07T03:13:50;101007.25;;;2.68;82.65
72925;BME280;61070;50.794;7.054;2024-01-07T03:14:50;101010.91;;;2.47;82.71
72925;BME280;61070;50.794;7.054;2024-01-07T03:15:50;101004.84;;;2.51;83.18
72925;BME280;61070;50.794;7.054;2024-01-07T03:16:51;101015.06;;;2.67;82.78
72925;BME280;61070;50.794;7.054;2024-01-07T03:17:51;101017.09;;;2.32;83.17
72925;BME280;61070;50.794;7.054;2024-01-07T03:18:52;101020.53;;;2.39;83.85
72925;BME280;61070;50.794;7.054;2024-01-07T03:19:52;101006.53;;;2.52;83.49
72925;BME280;61070;50.794;7.054;2024-01-07T03:20:52;101009.09;;;2.57;83.25
72925;BME280;61070;50.794;7.054;2024-01-07T03:21:52;101009.00;;;2.69;83.00
72925;BME280;61070;50.794;7.054;2024-01-07T03:22:53;101015.81;;;2.76;82.81
72925;BME280;61070;50.794;7.054;2024-01-07T03:23:55;101015.16;;;2.56;82.87
72925;BME280;61070;50.794;7.054;2024-01-07T03:24:55;101019.50;;;2.52;83.49
72925;BME280;61070;50.794;7.054;2024-01-07T03:25:58;101014.34;;;2.54;83.33
72925;BME280;61070;50.794;7.054;2024-01-07T03:26:58;101011.72;;;2.55;83.81
72925;BME280;61070;50.794;7.054;2024-01-07T03:27:58;101015.94;;;2.63;83.61
72925;BME280;61070;50.794;7.054;2024-01-07T03:28:59;101016.03;;;2.53;83.13
72925;BME280;61070;50.794;7.054;2024-01-07T03:30:03;101013.50;;;2.47;84.10
72925;BME280;61070;50.794;7.054;2024-01-07T03:31:05;101011.88;;;2.40;84.09
72925;BME280;61070;50.794;7.054;2024-01-07T03:32:05;101016.13;;;2.46;84.17
72925;BME280;61070;50.794;7.054;2024-01-07T03:33:06;101013.53;;;2.46;83.79
72925;BME280;61070;50.794;7.054;2024-01-07T03:34:06;101017.13;;;2.31;83.71
72925;BME280;61070;50.794;7.054;2024-01-07T03:35:06;101011.91;;;2.36;84.26
72925;BME280;61070;50.794;7.054;2024-01-07T03:36:09;101011.94;;;2.28;84.67
72925;BME280;61070;50.794;7.054;2024-01-07T03:37:09;101018.91;;;2.26;84.60
72925;BME280;61070;50.794;7.054;2024-01-07T03:38:10;101021.34;;;2.41;84.78
72925;BME280;61070;50.794;7.054;2024-01-07T03:39:10;101017.97;;;2.33;84.21
72925;BME280;61070;50.794;7.054;2024-01-07T03:40:11;101020.66;;;2.24;84.15
72925;BME280;61070;50.794;7.054;2024-01-07T03:41:19;101019.72;;;2.31;84.38
72925;BME280;61070;50.794;7.054;2024-01-07T03:42:19;101020.47;;;2.44;84.39
72925;BME280;61070;50.794;7.054;2024-01-07T03:43:20;101029.25;;;2.26;83.89
72925;BME280;61070;50.794;7.054;2024-01-07T03:44:20;101027.47;;;2.32;84.95
72925;BME280;61070;50.794;7.054;2024-01-07T03:45:20;101032.69;;;2.29;84.37
72925;BME280;61070;50.794;7.054;2024-01-07T03:46:21;101028.31;;;2.33;84.61
72925;BME280;61070;50.794;7.054;2024-01-07T03:47:21;101024.06;;;2.27;84.70
72925;BME280;61070;50.794;7.054;2024-01-07T03:48:21;101021.41;;;2.33;84.84
72925;BME280;61070;50.794;7.054;2024-01-07T03:49:22;101019.59;;;2.45;84.57
72925;BME280;61070;50.794;7.054;2024-01-07T03:50:22;101021.50;;;2.24;84.33
72925;BME280;61070;50.794;7.054;2024-01-07T03:51:22;101026.75;;;2.17;84.98
72925;BME280;61070;50.794;7.054;2024-01-07T03:52:22;101024.09;;;2.23;84.89
72925;BME280;61070;50.794;7.054;2024-01-07T03:53:23;101025.78;;;2.27;84.97
72925;BME280;61070;50.794;7.054;2024-01-07T03:54:23;101024.91;;;2.28;84.62
72925;BME280;61070;50.794;7.054;2024-01-07T03:55:23;101022.22;;;2.40;83.67
72925;BME280;61070;50.794;7.054;2024-01-07T03:56:24;101023.91;;;2.43;84.23
72925;BME280;61070;50.794;7.054;2024-01-07T03:57:24;101024.88;;;2.34;83.96
72925;BME280;61070;50.794;7.054;2024-01-07T03:58:24;101027.28;;;2.55;83.53
72925;BME280;61070;50.794;7.054;2024-01-07T03:59:25;101026.47;;;2.49;83.66
72925;BME280;61070;50.794;7.054;2024-01-07T04:00:25;101028.34;;;2.35;84.05
72925;BME280;61070;50.794;7.054;2024-01-07T04:01:25;101030.06;;;2.32;84.57
72925;BME280;61070;50.794;7.054;2024-01-07T04:02:26;101030.94;;;2.35;84.13
72925;BME280;61070;50.794;7.054;2024-01-07T04:03:26;101031.84;;;2.27;84.59
72925;BME280;61070;50.794;7.054;2024-01-07T04:04:26;101021.41;;;2.33;84.48
72925;BME280;61070;50.794;7.054;2024-01-07T04:05:27;101029.16;;;2.38;84.48
72925;BME280;61070;50.794;7.054;2024-01-07T04:06:29;101029.94;;;2.49;83.84
72925;BME280;61070;50.794;7.054;2024-01-07T04:07:29;101030.00;;;2.42;83.85
72925;BME280;61070;50.794;7.054;2024-01-07T04:08:29;101035.88;;;2.61;83.34
72925;BME280;61070;50.794;7.054;2024-01-07T04:09:30;101032.75;;;2.25;83.17
72925;BME280;61070;50.794;7.054;2024-01-07T04:10:30;101035.97;;;2.48;83.51
72925;BME280;61070;50.794;7.054;2024-01-07T04:11:30;101032.59;;;2.42;83.77
72925;BME280;61070;50.794;7.054;2024-01-07T04:12:31;101036.91;;;2.41;83.69
72925;BME280;61070;50.794;7.054;2024-01-07T04:13:31;101036.84;;;2.47;83.15
72925;BME280;61070;50.794;7.054;2024-01-07T04:14:31;101042.97;;;2.39;83.10
72925;BME280;61070;50.794;7.054;2024-01-07T04:15:33;101041.41;;;2.24;84.00
72925;BME280;61070;50.794;7.054;2024-01-07T04:16:34;101031.84;;;2.26;83.32
72925;BME280;61070;50.794;7.054;2024-01-07T04:17:34;101034.59;;;2.09;83.89
72925;BME280;61070;50.794;7.054;2024-01-07T04:18:34;101040.59;;;2.16;84.53
72925;BME280;61070;50.794;7.054;2024-01-07T04:19:37;101050.88;;;2.25;84.53
72925;BME280;61070;50.794;7.054;2024-01-07T04:20:38;101046.59;;;2.21;84.25
72925;BME280;61070;50.794;7.054;2024-01-07T04:21:38;101049.28;;;2.10;83.89
72925;BME280;61070;50.794;7.054;2024-01-07T04:22:38;101044.09;;;2.10;84.20
72925;BME280;61070;50.794;7.054;2024-01-07T04:23:39;101044.94;;;2.07;84.19
72925;BME280;61070;50.794;7.054;2024-01-07T04:24:43;101039.69;;;2.20;84.22
72925;BME280;61070;50.794;7.054;2024-01-07T04:25:44;101043.88;;;2.33;83.88
72925;BME280;61070;50.794;7.054;2024-01-07T04:26:45;101045.66;;;2.29;83.76
72925;BME280;61070;50.794;7.054;2024-01-07T04:27:45;101046.50;;;2.28;83.96
72925;BME280;61070;50.794;7.054;2024-01-07T04:28:45;101044.81;;;2.27;84.33
72925;BME280;61070;50.794;7.054;2024-01-07T04:29:46;101054.38;;;2.19;84.08
72925;BME280;61070;50.794;7.054;2024-01-07T04:30:46;101049.06;;;2.36;84.14
72925;BME280;61070;50.794;7.054;2024-01-07T04:31:48;101060.34;;;2.30;83.81
72925;BME280;61070;50.794;7.054;2024-01-07T04:32:49;101054.22;;;2.39;83.92
72925;BME280;61070;50.794;7.054;2024-01-07T04:33:49;101051.72;;;2.30;83.78
72925;BME280;61070;50.794;7.054;2024-01-07T04:34:49;101049.13;;;2.30;83.86
72925;BME280;61070;50.794;7.054;2024-01-07T04:35:49;101052.59;;;2.26;84.01
72925;BME280;61070;50.794;7.054;2024-01-07T04:36:50;101054.41;;;2.16;84.61
72925;BME280;61070;50.794;7.054;2024-01-07T04:37:51;101044.88;;;2.18;84.66
72925;BME280;61070;50.794;7.054;2024-01-07T04:38:51;101060.41;;;2.21;84.68
72925;BME280;61070;50.794;7.054;2024-01-07T04:39:51;101058.66;;;2.23;84.43
72925;BME280;61070;50.794;7.054;2024-01-07T04:40:51;101067.34;;;2.18;84.63
72925;BME280;61070;50.794;7.054;2024-01-07T04:41:52;101057.75;;;2.27;84.81
72925;BME280;61070;50.794;7.054;2024-01-07T04:42:52;101051.81;;;2.13;84.74
72925;BME280;61070;50.794;7.054;2024-01-07T04:43:52;101066.44;;;2.25;84.50
72925;BME280;61070;50.794;7.054;2024-01-07T04:44:53;101063.81;;;2.28;84.12
72925;BME280;61070;50.794;7.054;2024-01-07T04:45:53;101056.00;;;2.31;84.22
72925;BME280;61070;50.794;7.054;2024-01-07T04:46:53;101064.75;;;2.19;84.27
72925;BME280;61070;50.794;7.054;2024-01-07T04:47:53;101070.78;;;2.18;83.82
72925;BME280;61070;50.794;7.054;2024-01-07T04:48:54;101066.44;;;2.23;84.21
72925;BME280;61070;50.794;7.054;2024-01-07T04:49:54;101064.81;;;2.10;84.19
72925;BME280;61070;50.794;7.054;2024-01-07T04:50:55;101077.78;;;2.07;84.77
72925;BME280;61070;50.794;7.054;2024-01-07T04:51:55;101072.59;;;2.10;85.09
72925;BME280;61070;50.794;7.054;2024-01-07T04:52:55;101080.38;;;2.07;84.73
72925;BME280;61070;50.794;7.054;2024-01-07T04:53:55;101075.25;;;2.04;85.22
72925;BME280;61070;50.794;7.054;2024-01-07T04:54:56;101073.53;;;1.97;85.16
72925;BME280;61070;50.794;7.054;2024-01-07T04:55:56;101076.84;;;2.17;85.64
72925;BME280;61070;50.794;7.054;2024-01-07T04:56:56;101077.69;;;2.21;84.77
72925;BME280;61070;50.794;7.054;2024-01-07T04:57:56;101077.84;;;1.98;84.94
72925;BME280;61070;50.794;7.054;2024-01-07T04:58:57;101080.41;;;2.05;85.41
72925;BME280;61070;50.794;7.054;2024-01-07T04:59:57;101083.84;;;2.03;85.22
72925;BME280;61070;50.794;7.054;2024-01-07T05:00:57;101086.53;;;1.92;85.41
72925;BME280;61070;50.794;7.054;2024-01-07T05:01:58;101084.88;;;1.80;85.62
72925;BME280;61070;50.794;7.054;2024-01-07T05:02:58;101083.13;;;1.86;86.25
72925;BME280;61070;50.794;7.054;2024-01-07T05:03:59;101093.47;;;1.86;85.89
72925;BME280;61070;50.794;7.054;2024-01-07T05:04:59;101096.97;;;1.80;86.27
72925;BME280;61070;50.794;7.054;2024-01-07T05:05:59;101090.06;;;1.73;86.64
72925;BME280;61070;50.794;7.054;2024-01-07T05:06:59;101092.59;;;1.84;86.75
72925;BME280;61070;50.794;7.054;2024-01-07T05:08:00;101095.25;;;1.73;85.64
72925;BME280;61070;50.794;7.054;2024-01-07T05:09:00;101090.13;;;1.70;85.94
72925;BME280;61070;50.794;7.054;2024-01-07T05:10:01;101095.25;;;1.73;86.34
72925;BME280;61070;50.794;7.054;2024-01-07T05:11:01;101087.38;;;1.93;86.50
72925;BME280;61070;50.794;7.054;2024-01-07T05:12:01;101094.31;;;1.88;86.20
72925;BME280;61070;50.794;7.054;2024-01-07T05:13:01;101087.19;;;2.19;86.03
72925;BME280;61070;50.794;7.054;2024-01-07T05:14:06;101087.31;;;2.02;85.29
72925;BME280;61070;50.794;7.054;2024-01-07T05:15:07;101099.41;;;2.06;85.46
72925;BME280;61070;50.794;7.054;2024-01-07T05:16:07;101087.28;;;2.06;85.38
72925;BME280;61070;50.794;7.054;2024-01-07T05:17:08;101093.50;;;1.78;85.78
72925;BME280;61070;50.794;7.054;2024-01-07T05:18:08;101097.75;;;1.88;85.84
72925;BME280;61070;50.794;7.054;2024-01-07T05:19:09;101093.50;;;1.81;85.82
72925;BME280;61070;50.794;7.054;2024-01-07T05:20:10;101093.41;;;1.99;85.85